Time;durP1;ratioP1;P1;durP2;ratioP2;P2;SDS_P1;SDS_P2;PMS_P1;PMS_P2;Temp;Humidity;BMP_temperature;BMP_pressure;BME280_temperature;BME280_humidity;BME280_pressure;Samples;Min_cycle;Max_cycle;Signal;HPM_P1;HPM_P2
2022/02/27 00:01:19;;;;;;;13.38;12.55;;;;;;;-1.04;100.00;103089.66;5038071;28;20386;-85
2022/02/27 00:03:52;;;;;;;14.10;13.20;;;;;;;-1.06;100.00;103091.63;5028362;28;20048;-84
2022/02/27 00:06:22;;;;;;;14.13;13.23;;;;;;;-1.16;100.00;103090.81;5031867;28;20057;-85
2022/02/27 00:08:55;;;;;;;13.75;12.85;;;;;;;-1.20;100.00;103090.22;5023624;28;20045;-84
2022/02/27 00:11:23;;;;;;;14.18;13.27;;;;;;;-1.23;100.00;103082.50;5019870;28;20053;-84
2022/02/27 00:13:56;;;;;;;14.95;14.05;;;;;;;-1.21;100.00;103098.41;5025764;28;20054;-84
2022/02/27 00:16:30;;;;;;;14.15;13.25;;;;;;;-1.25;100.00;103097.81;5026426;28;20041;-86
2022/02/27 00:18:58;;;;;;;14.75;13.85;;;;;;;-1.25;100.00;103095.16;5026802;28;20053;-86
2022/02/27 00:21:33;;;;;;;14.90;14.00;;;;;;;-1.34;100.00;103093.34;5031501;28;20052;-85
2022/02/27 00:24:01;;;;;;;14.70;13.80;;;;;;;-1.33;100.00;103102.19;5025277;28;20038;-84
2022/02/27 00:26:34;;;;;;;16.30;15.30;;;;;;;-1.31;100.00;103108.22;5026539;28;20047;-85
2022/02/27 00:29:08;;;;;;;16.17;15.18;;;;;;;-1.32;100.00;103102.03;5027732;28;20064;-83
2022/02/27 00:31:42;;;;;;;16.92;15.93;;;;;;;-1.31;100.00;103105.56;5030443;28;20057;-85
2022/02/27 00:34:15;;;;;;;16.33;15.32;;;;;;;-1.33;100.00;103100.34;5028743;28;20566;-84
2022/02/27 00:36:51;;;;;;;17.38;16.38;;;;;;;-1.44;100.00;103093.31;5028956;28;20052;-84
2022/02/27 00:39:24;;;;;;;16.42;15.43;;;;;;;-1.49;100.00;103098.25;5043565;28;20532;-84
2022/02/27 00:41:57;;;;;;;17.42;16.42;;;;;;;-1.49;100.00;103100.94;5025848;28;20052;-84
2022/02/27 00:44:30;;;;;;;16.95;15.95;;;;;;;-1.51;100.00;103102.03;5027667;28;20501;-85
2022/02/27 00:47:04;;;;;;;18.63;17.52;;;;;;;-1.57;100.00;103092.78;5017549;28;20602;-85
2022/02/27 00:49:37;;;;;;;17.30;16.30;;;;;;;-1.49;100.00;103103.59;5021052;28;20045;-84
2022/02/27 00:52:12;;;;;;;20.02;18.83;;;;;;;-1.60;100.00;103085.00;5030200;28;20054;-84
2022/02/27 00:54:45;;;;;;;18.92;17.83;;;;;;;-1.57;100.00;103087.44;5022579;28;20509;-84
2022/02/27 00:57:18;;;;;;;20.15;18.95;;;;;;;-1.60;100.00;103080.53;5025745;28;20056;-84
2022/02/27 00:59:47;;;;;;;20.50;19.30;;;;;;;-1.49;100.00;103092.06;5028876;28;20053;-84
2022/02/27 01:02:15;;;;;;;21.55;20.33;;;;;;;-1.48;100.00;103099.09;5024963;28;20059;-84
2022/02/27 01:04:48;;;;;;;21.45;20.25;;;;;;;-1.49;100.00;103102.75;5027640;28;20037;-83
2022/02/27 01:07:22;;;;;;;21.80;20.55;;;;;;;-1.57;100.00;103093.59;5027901;28;20467;-84
2022/02/27 01:09:55;;;;;;;22.02;20.73;;;;;;;-1.56;100.00;103094.44;5029904;28;20049;-84
2022/02/27 01:12:29;;;;;;;23.05;21.75;;;;;;;-1.55;100.00;103098.81;5033880;28;20049;-84
2022/02/27 01:15:03;;;;;;;25.08;23.67;;;;;;;-1.51;100.00;103092.19;5029397;28;20064;-84
2022/02/27 01:17:31;;;;;;;24.83;23.42;;;;;;;-1.50;100.00;103093.06;5032601;28;20051;-83
2022/02/27 01:20:06;;;;;;;23.75;22.40;;;;;;;-1.46;100.00;103091.81;5027956;28;20054;-83
2022/02/27 01:22:40;;;;;;;25.35;23.95;;;;;;;-1.50;100.00;103088.56;5024273;28;20057;-84
2022/02/27 01:25:13;;;;;;;24.90;23.50;;;;;;;-1.54;100.00;103089.81;5025645;28;20070;-85
2022/02/27 01:27:48;;;;;;;24.23;22.83;;;;;;;-1.54;100.00;103092.47;5028071;28;20053;-84
2022/02/27 01:30:21;;;;;;;26.90;25.40;;;;;;;-1.59;100.00;103081.38;5023836;28;20056;-84
2022/02/27 01:32:54;;;;;;;27.25;25.75;;;;;;;-1.58;100.00;103078.56;5020384;28;20072;-84
2022/02/27 01:35:28;;;;;;;27.52;26.02;;;;;;;-1.52;100.00;103093.19;5029753;28;20054;-84
2022/02/27 01:38:03;;;;;;;27.13;25.63;;;;;;;-1.60;100.00;103093.03;5028341;28;20381;-84
2022/02/27 01:40:36;;;;;;;27.88;26.35;;;;;;;-1.57;100.00;103090.94;5031232;28;20045;-84
2022/02/27 01:43:04;;;;;;;29.10;27.50;;;;;;;-1.61;100.00;103072.66;5035760;28;20042;-84
2022/02/27 01:45:33;;;;;;;28.17;26.63;;;;;;;-1.59;100.00;103092.91;5044453;28;20052;-84
2022/02/27 01:48:06;;;;;;;30.83;29.13;;;;;;;-1.69;100.00;103084.03;5044691;28;20052;-83
2022/02/27 01:50:39;;;;;;;29.50;27.90;;;;;;;-1.65;100.00;103089.94;5036838;28;20041;-84
2022/02/27 01:53:14;;;;;;;31.30;29.60;;;;;;;-1.63;100.00;103094.19;5026771;28;20053;-85
2022/02/27 01:55:42;;;;;;;31.40;29.70;;;;;;;-1.67;100.00;103092.75;5030049;28;20037;-83
2022/02/27 01:58:15;;;;;;;31.13;29.42;;;;;;;-1.69;100.00;103092.03;5028521;28;20049;-84
2022/02/27 02:00:48;;;;;;;32.80;31.00;;;;;;;-1.72;100.00;103092.31;5028802;28;20603;-84
2022/02/27 02:03:16;;;;;;;31.92;30.17;;;;;;;-1.74;100.00;103086.25;5032042;28;20046;-85
2022/02/27 02:05:44;;;;;;;31.70;30.00;;;;;;;-1.79;100.00;103096.53;5029582;28;20048;-84
2022/02/27 02:08:15;;;;;;;34.60;32.70;;;;;;;-1.80;100.00;103092.19;5035014;28;20405;-84
2022/02/27 02:10:50;;;;;;;32.92;31.13;;;;;;;-1.81;100.00;103088.66;5028392;28;20544;-84
2022/02/27 02:13:18;;;;;;;31.23;29.52;;;;;;;-1.88;100.00;103087.50;5021319;28;20050;-83
2022/02/27 02:15:56;;;;;;;32.40;30.60;;;;;;;-1.98;100.00;103082.16;5033841;28;20478;-84
2022/02/27 02:18:38;;;;;;;33.15;31.35;;;;;;;-1.95;100.00;103091.72;5013835;28;20054;-84
2022/02/27 02:21:12;;;;;;;34.05;32.17;;;;;;;-2.03;100.00;103092.41;5028434;28;20053;-84
2022/02/27 02:23:47;;;;;;;32.90;31.10;;;;;;;-2.08;100.00;103090.13;5032092;28;20052;-83
2022/02/27 02:26:22;;;;;;;33.55;31.75;;;;;;;-2.16;100.00;103095.31;5037729;28;20064;-84
2022/02/27 02:28:55;;;;;;;35.60;33.70;;;;;;;-2.17;100.00;103093.59;5031220;28;20046;-85
2022/02/27 02:31:29;;;;;;;35.35;33.45;;;;;;;-2.14;100.00;103101.38;5051114;28;20052;-84
2022/02/27 02:34:04;;;;;;;35.53;33.63;;;;;;;-2.14;100.00;103096.03;5039195;28;20048;-84
2022/02/27 02:36:40;;;;;;;37.22;35.22;;;;;;;-2.20;100.00;103095.72;5025767;28;20694;-85
2022/02/27 02:39:15;;;;;;;37.47;35.47;;;;;;;-2.22;100.00;103088.69;5042898;28;20050;-84
2022/02/27 02:41:50;;;;;;;37.28;35.28;;;;;;;-2.23;100.00;103086.16;5031291;28;20049;-84
2022/02/27 02:44:28;;;;;;;37.40;35.40;;;;;;;-2.17;100.00;103092.78;5040531;28;20049;-84
2022/02/27 02:47:01;;;;;;;39.17;37.08;;;;;;;-2.17;100.00;103093.59;5029572;28;20056;-84
2022/02/27 02:49:34;;;;;;;37.63;35.60;;;;;;;-2.19;100.00;103087.59;5026673;28;20052;-84
2022/02/27 02:52:09;;;;;;;40.35;38.15;;;;;;;-2.22;100.00;103090.53;5033239;28;20061;-84
2022/02/27 02:54:42;;;;;;;41.30;39.10;;;;;;;-2.25;100.00;103088.09;5032694;28;20048;-84
2022/02/27 02:57:15;;;;;;;38.83;36.70;;;;;;;-2.30;100.00;103080.53;5025774;28;20053;-84
2022/02/27 02:59:43;;;;;;;40.08;37.90;;;;;;;-2.31;100.00;103089.50;5031648;28;20045;-84
2022/02/27 03:02:17;;;;;;;42.90;40.60;;;;;;;-2.35;100.00;103087.25;5030414;28;20061;-84
2022/02/27 03:04:45;;;;;;;41.45;39.25;;;;;;;-2.33;100.00;103090.63;5030010;28;20064;-84
2022/02/27 03:07:19;;;;;;;42.40;40.10;;;;;;;-2.36;100.00;103091.75;5031957;28;20895;-84
2022/02/27 03:09:47;;;;;;;43.97;41.60;;;;;;;-2.36;100.00;103085.53;5040993;28;20049;-84
2022/02/27 03:12:20;;;;;;;47.40;44.88;;;;;;;-2.33;100.00;103091.47;5025849;28;20069;-84
2022/02/27 03:14:49;;;;;;;48.60;46.00;;;;;;;-2.37;100.00;103100.72;5033657;28;20041;-84
2022/02/27 03:17:17;;;;;;;48.13;45.53;;;;;;;-2.37;100.00;103100.72;5032561;28;20061;-84
2022/02/27 03:19:50;;;;;;;47.53;44.97;;;;;;;-2.44;100.00;103092.41;5029821;28;20590;-84
2022/02/27 03:22:24;;;;;;;47.25;44.72;;;;;;;-2.46;100.00;103105.03;5029808;28;20049;-84
2022/02/27 03:24:53;;;;;;;50.22;47.53;;;;;;;-2.46;100.00;103099.72;5027011;28;20045;-84
2022/02/27 03:27:26;;;;;;;50.45;47.75;;;;;;;-2.44;100.00;103099.56;5032041;28;20517;-84
2022/02/27 03:29:54;;;;;;;52.22;49.42;;;;;;;-2.40;100.00;103104.50;5038155;28;20049;-84
2022/02/27 03:32:27;;;;;;;51.13;48.40;;;;;;;-2.45;100.00;103104.03;5039018;28;20061;-84
2022/02/27 03:35:00;;;;;;;52.53;49.72;;;;;;;-2.48;100.00;103096.31;5028055;28;20045;-84
2022/02/27 03:37:35;;;;;;;50.80;48.08;;;;;;;-2.47;100.00;103100.69;5032915;28;20480;-84
2022/02/27 03:40:04;;;;;;;53.83;50.95;;;;;;;-2.57;100.00;103092.63;5044522;28;20056;-84
2022/02/27 03:42:32;;;;;;;54.08;51.17;;;;;;;-2.56;100.00;103109.47;5025430;28;20044;-84
2022/02/27 03:45:00;;;;;;;54.72;51.83;;;;;;;-2.54;100.00;103112.84;5034214;28;20048;-84
2022/02/27 03:47:28;;;;;;;54.35;51.45;;;;;;;-2.57;100.00;103103.28;5045161;28;20057;-84
2022/02/27 03:50:01;;;;;;;52.53;49.72;;;;;;;-2.57;100.00;103095.31;5028860;28;20045;-84
2022/02/27 03:52:36;;;;;;;56.75;53.72;;;;;;;-2.57;100.00;103102.44;5028516;28;20498;-85
2022/02/27 03:55:11;;;;;;;53.90;51.00;;;;;;;-2.57;100.00;103097.97;5042638;28;20053;-85
2022/02/27 03:57:45;;;;;;;58.28;55.17;;;;;;;-2.54;100.00;103098.66;5019779;28;20065;-84
2022/02/27 04:00:19;;;;;;;60.17;56.97;;;;;;;-2.54;100.00;103099.53;5040195;28;20409;-84
2022/02/27 04:02:52;;;;;;;60.60;57.35;;;;;;;-2.54;100.00;103098.66;5026204;28;20046;-84
2022/02/27 04:05:25;;;;;;;59.72;56.53;;;;;;;-2.54;100.00;103098.66;5026569;28;20056;-84
2022/02/27 04:07:54;;;;;;;58.50;55.40;;;;;;;-2.56;100.00;103093.47;5028537;28;20494;-84
2022/02/27 04:10:28;;;;;;;60.58;57.28;;;;;;;-2.57;100.00;103094.44;5029880;28;20053;-84
2022/02/27 04:12:56;;;;;;;61.78;58.45;;;;;;;-2.58;100.00;103093.59;5039376;28;20045;-84
2022/02/27 04:15:24;;;;;;;63.55;60.15;;;;;;;-2.60;100.00;103087.53;5023457;28;20057;-84
2022/02/27 04:17:58;;;;;;;60.42;57.20;;;;;;;-2.62;100.00;103086.00;5024819;28;20046;-84
2022/02/27 04:20:31;;;;;;;66.20;62.65;;;;;;;-2.74;100.00;103074.56;5029760;28;21788;-83
2022/02/27 04:23:05;;;;;;;65.65;62.15;;;;;;;-2.64;100.00;103087.94;5028841;28;20036;-84
2022/02/27 04:25:38;;;;;;;67.80;64.18;;;;;;;-2.64;100.00;103082.63;5023166;28;20379;-84
2022/02/27 04:28:12;;;;;;;64.93;61.42;;;;;;;-2.64;100.00;103087.94;5030495;28;20053;-84
2022/02/27 04:30:45;;;;;;;67.25;63.65;;;;;;;-2.65;100.00;103087.13;5028817;28;20049;-84
2022/02/27 04:33:18;;;;;;;72.07;68.25;;;;;;;-2.66;100.00;103089.91;5043553;28;20064;-84
2022/02/27 04:35:51;;;;;;;69.75;66.03;;;;;;;-2.63;100.00;103084.31;5026540;28;20359;-84
2022/02/27 04:38:26;;;;;;;71.60;67.80;;;;;;;-2.65;100.00;103086.25;5024244;28;20046;-84
2022/02/27 04:40:59;;;;;;;71.32;67.47;;;;;;;-2.65;100.00;103094.25;5033329;28;20489;-85
2022/02/27 04:43:32;;;;;;;71.13;67.32;;;;;;;-2.62;100.00;103094.84;5038051;28;20060;-83
2022/02/27 04:46:00;;;;;;;73.00;69.07;;;;;;;-2.64;100.00;103088.81;5031014;28;20045;-85
2022/02/27 04:48:28;;;;;;;70.82;67.03;;;;;;;-2.69;100.00;103068.84;5021622;28;20060;-84
2022/02/27 04:50:56;;;;;;;73.70;69.75;;;;;;;-2.65;100.00;103087.13;5024891;28;20064;-85
2022/02/27 04:53:26;;;;;;;74.28;70.28;;;;;;;-2.66;100.00;103080.09;5030028;28;20054;-84
2022/02/27 04:55:59;;;;;;;76.95;72.85;;;;;;;-2.65;100.00;103087.13;5020281;28;20041;-84
2022/02/27 04:58:32;;;;;;;76.22;72.18;;;;;;;-2.68;100.00;103081.19;5034299;28;20425;-85
2022/02/27 05:01:01;;;;;;;73.93;69.95;;;;;;;-2.76;100.00;103077.38;5043733;28;20057;-85
2022/02/27 05:03:29;;;;;;;82.70;78.32;;;;;;;-2.69;100.00;103084.81;5031307;28;20659;-84
2022/02/27 05:05:57;;;;;;;78.65;74.45;;;;;;;-2.74;100.00;103083.41;5030938;28;20045;-84
2022/02/27 05:08:31;;;;;;;79.47;75.25;;;;;;;-2.76;100.00;103085.38;5020273;28;20057;-85
2022/02/27 05:11:05;;;;;;;77.60;73.45;;;;;;;-2.76;100.00;103089.88;5025281;28;20742;-85
2022/02/27 05:13:34;;;;;;;79.70;75.43;;;;;;;-2.79;100.00;103093.63;5032390;28;20083;-85
2022/02/27 05:16:02;;;;;;;78.30;74.13;;;;;;;-2.79;100.00;103098.97;5030419;28;20041;-85
2022/02/27 05:18:35;;;;;;;85.55;81.05;;;;;;;-2.87;100.00;103082.78;5026541;28;20049;-85
2022/02/27 05:21:03;;;;;;;83.55;79.13;;;;;;;-2.80;100.00;103091.94;5022976;28;20046;-85
2022/02/27 05:23:37;;;;;;;84.43;79.95;;;;;;;-2.81;100.00;103094.75;5022382;28;20045;-84
2022/02/27 05:26:05;;;;;;;85.72;81.22;;;;;;;-2.76;100.00;103096.03;5029071;28;20049;-85
2022/02/27 05:28:38;;;;;;;84.72;80.25;;;;;;;-2.76;100.00;103092.53;5041840;28;20053;-85
2022/02/27 05:31:12;;;;;;;87.68;83.05;;;;;;;-2.78;100.00;103095.31;5033192;28;20064;-85
2022/02/27 05:33:40;;;;;;;85.53;81.00;;;;;;;-2.88;100.00;103083.75;5025938;28;20054;-85
2022/02/27 05:36:13;;;;;;;87.55;82.93;;;;;;;-2.83;100.00;103102.88;5026566;28;20069;-84
2022/02/27 05:38:47;;;;;;;91.13;86.32;;;;;;;-2.82;100.00;103106.38;5024010;28;20045;-84
2022/02/27 05:41:20;;;;;;;91.07;86.28;;;;;;;-2.81;100.00;103100.06;5024135;28;20498;-84
2022/02/27 05:43:53;;;;;;;90.55;85.80;;;;;;;-2.84;100.00;103113.66;5024680;28;20041;-84
2022/02/27 05:46:26;;;;;;;91.97;87.18;;;;;;;-2.84;100.00;103111.84;5030814;28;20048;-85
2022/02/27 05:49:00;;;;;;;89.40;84.70;;;;;;;-2.83;100.00;103116.19;5030709;28;20478;-83
2022/02/27 05:51:33;;;;;;;93.15;88.28;;;;;;;-2.82;100.00;103122.34;5025522;28;20060;-85
2022/02/27 05:54:07;;;;;;;97.80;92.70;;;;;;;-2.85;100.00;103112.81;5029115;28;20046;-84
2022/02/27 05:56:40;;;;;;;98.30;93.20;;;;;;;-2.83;100.00;103116.19;5020094;28;20057;-82
2022/02/27 05:59:13;;;;;;;97.63;92.53;;;;;;;-2.83;100.00;103118.00;5036721;28;20049;-84
2022/02/27 06:01:47;;;;;;;95.03;90.05;;;;;;;-2.82;100.00;103117.03;5044182;28;20390;-83
2022/02/27 06:04:21;;;;;;;96.03;91.03;;;;;;;-2.85;100.00;103107.47;5025245;28;20486;-84
2022/02/27 06:06:54;;;;;;;97.53;92.43;;;;;;;-2.80;100.00;103117.75;5030210;28;20035;-84
2022/02/27 06:09:29;;;;;;;103.18;97.80;;;;;;;-2.82;100.00;103120.53;5037184;28;20445;-84
2022/02/27 06:12:02;;;;;;;107.80;102.22;;;;;;;-2.82;100.00;103125.84;5024792;28;20374;-84
2022/02/27 06:14:30;;;;;;;109.50;103.85;;;;;;;-2.84;100.00;103119.84;5021205;28;20064;-84
2022/02/27 06:17:04;;;;;;;108.68;103.03;;;;;;;-2.83;100.00;103115.34;5035434;28;20041;-84
2022/02/27 06:19:37;;;;;;;104.20;98.75;;;;;;;-2.84;100.00;103124.31;5027636;28;20050;-84
2022/02/27 06:22:06;;;;;;;110.78;105.00;;;;;;;-2.96;100.00;103095.06;5015970;28;20050;-84
2022/02/27 06:24:40;;;;;;;113.10;107.22;;;;;;;-2.96;100.00;103099.56;5030595;28;20050;-84
2022/02/27 06:27:14;;;;;;;113.20;107.30;;;;;;;-2.83;100.00;103118.88;5023922;28;20438;-81
2022/02/27 06:29:47;;;;;;;117.20;111.15;;;;;;;-2.86;100.00;103118.25;5033182;28;20044;-84
2022/02/27 06:32:20;;;;;;;114.15;108.28;;;;;;;-2.82;100.00;103112.53;5023357;28;20049;-84
2022/02/27 06:34:53;;;;;;;114.00;108.05;;;;;;;-2.82;100.00;103115.19;5029235;28;20577;-83
2022/02/27 06:37:26;;;;;;;120.10;113.90;;;;;;;-2.80;100.00;103128.41;5029938;28;20041;-84
2022/02/27 06:40:00;;;;;;;123.22;116.85;;;;;;;-2.82;100.00;103130.34;5032006;28;20044;-85
2022/02/27 06:42:33;;;;;;;124.63;118.15;;;;;;;-2.83;100.00;103116.19;5025534;28;20053;-84
2022/02/27 06:45:08;;;;;;;125.10;118.60;;;;;;;-2.80;100.00;103125.75;5035911;28;20048;-85
2022/02/27 06:47:41;;;;;;;128.32;121.63;;;;;;;-2.83;100.00;103102.00;5032861;28;20068;-84
2022/02/27 06:50:15;;;;;;;133.32;126.38;;;;;;;-2.75;100.00;103115.53;5031721;28;20045;-84
2022/02/27 06:52:43;;;;;;;135.10;128.07;;;;;;;-2.69;100.00;103119.47;5028336;28;20046;-84
2022/02/27 06:55:19;;;;;;;139.95;132.63;;;;;;;-2.63;100.00;103126.97;5027416;28;20077;-84
2022/02/27 06:57:52;;;;;;;144.27;136.70;;;;;;;-2.65;100.00;103124.44;5026524;28;20065;-83
2022/02/27 07:00:25;;;;;;;151.98;143.95;;;;;;;-2.58;100.00;103136.25;5032481;28;20053;-83
2022/02/27 07:02:58;;;;;;;150.80;142.85;;;;;;;-2.57;100.00;103135.28;5022661;28;20052;-85
2022/02/27 07:05:31;;;;;;;155.43;147.20;;;;;;;-2.50;100.00;103135.63;5028290;28;20733;-84
2022/02/27 07:08:06;;;;;;;159.85;151.38;;;;;;;-2.46;100.00;103138.84;5033629;28;20042;-84
2022/02/27 07:10:40;;;;;;;166.48;157.60;;;;;;;-2.44;100.00;103131.56;5027328;28;20402;-84
2022/02/27 07:13:13;;;;;;;174.80;165.48;;;;;;;-2.38;100.00;103135.53;5027622;28;20054;-84
2022/02/27 07:15:46;;;;;;;175.85;166.38;;;;;;;-2.36;100.00;103144.22;5024806;28;20053;-83
2022/02/27 07:18:19;;;;;;;177.20;167.57;;;;;;;-2.36;100.00;103136.22;5022675;28;20052;-86
2022/02/27 07:20:47;;;;;;;188.88;178.73;;;;;;;-2.36;100.00;103134.41;5034140;28;20481;-85
2022/02/27 07:23:20;;;;;;;198.80;188.23;;;;;;;-2.23;100.00;103151.03;5031143;28;20489;-85
2022/02/27 07:25:50;;;;;;;191.05;180.73;;;;;;;-2.23;100.00;103150.19;5020094;28;20414;-84
2022/02/27 07:28:23;;;;;;;203.15;192.20;;;;;;;-2.18;100.00;103155.97;5049754;28;20052;-85
2022/02/27 07:30:51;;;;;;;216.77;205.13;;;;;;;-2.08;100.00;103153.34;5044572;28;20410;-84
2022/02/27 07:33:19;;;;;;;228.32;216.18;;;;;;;-2.03;100.00;103150.25;5034142;28;20092;-84
2022/02/27 07:35:52;;;;;;;229.73;217.48;;;;;;;-1.96;100.00;103146.94;5031371;28;20060;-83
2022/02/27 07:38:26;;;;;;;238.98;226.23;;;;;;;-1.83;100.00;103154.69;5023379;28;20053;-84
2022/02/27 07:41:00;;;;;;;247.60;234.32;;;;;;;-1.88;100.00;103156.91;5036249;28;20057;-85
2022/02/27 07:43:28;;;;;;;240.38;227.45;;;;;;;-1.84;100.00;103152.16;5027284;28;20044;-83
2022/02/27 07:46:03;;;;;;;245.45;232.20;;;;;;;-1.81;100.00;103147.41;5027473;28;20068;-85
2022/02/27 07:48:36;;;;;;;269.83;255.32;;;;;;;-1.70;100.00;103157.09;5023940;28;20052;-86
2022/02/27 07:51:04;;;;;;;277.48;262.50;;;;;;;-1.66;100.00;103155.84;5039421;28;20049;-87
2022/02/27 07:53:37;;;;;;;294.88;278.85;;;;;;;-1.60;100.00;103157.97;5032983;28;20072;-87
2022/02/27 07:56:11;;;;;;;287.98;272.30;;;;;;;-1.77;100.00;103132.78;5033608;28;20060;-85
2022/02/27 07:58:44;;;;;;;289.48;273.63;;;;;;;-1.51;100.00;103158.97;5031081;28;20057;-87
2022/02/27 08:01:13;;;;;;;311.95;294.55;;;;;;;-1.56;100.00;103145.16;5026675;28;20057;-87
2022/02/27 08:03:41;;;;;;;324.33;306.20;;;;;;;-1.41;100.00;103149.16;5027866;28;20048;-86
2022/02/27 08:06:09;;;;;;;340.77;321.33;;;;;;;-1.31;100.00;103161.66;5034736;28;20037;-85
2022/02/27 08:08:42;;;;;;;354.92;334.48;;;;;;;-1.31;100.00;103167.00;5030574;28;20045;-86
2022/02/27 08:11:17;;;;;;;364.73;343.52;;;;;;;-1.29;100.00;103160.53;5025317;28;20057;-85
2022/02/27 08:13:50;;;;;;;379.88;357.48;;;;;;;-1.25;100.00;103166.44;5027536;28;20050;-86
2022/02/27 08:16:23;;;;;;;408.70;383.92;;;;;;;-1.08;100.00;103170.25;5023379;28;20501;-84
2022/02/27 08:18:56;;;;;;;442.83;415.33;;;;;;;-0.99;100.00;103166.75;5027061;28;20048;-85
2022/02/27 08:21:29;;;;;;;449.67;421.80;;;;;;;-0.98;100.00;103171.09;5029403;28;20046;-82
2022/02/27 08:23:58;;;;;;;459.85;431.17;;;;;;;-0.93;100.00;103176.84;5035232;28;20054;-85
2022/02/27 08:26:32;;;;;;;512.90;479.83;;;;;;;-0.89;100.00;103166.72;5032000;28;20053;-85
2022/02/27 08:29:06;;;;;;;570.42;532.88;;;;;;;-0.83;100.00;103176.84;5025277;28;20062;-85
2022/02/27 08:31:42;;;;;;;591.25;552.05;;;;;;;-0.79;100.00;103162.19;5023016;28;20045;-85
2022/02/27 08:34:10;;;;;;;652.67;608.45;;;;;;;-0.69;100.00;103172.91;5030103;28;20487;-86
2022/02/27 08:36:39;;;;;;;693.47;645.75;;;;;;;-0.64;100.00;103164.44;5022018;28;20510;-85
2022/02/27 08:39:09;;;;;;;761.50;707.88;;;;;;;-0.56;100.00;103169.91;5031304;28;20069;-85
2022/02/27 08:41:43;;;;;;;839.55;779.67;;;;;;;-0.56;100.00;103172.59;5030082;28;20041;-86
2022/02/27 08:44:11;;;;;;;887.97;823.78;;;;;;;-0.55;100.00;103175.13;5029384;28;20041;-87
2022/02/27 08:46:44;;;;;;;971.30;899.05;;;;;;;-0.49;100.00;103173.69;5031724;28;20160;-85
2022/02/27 08:49:13;;;;;;;1021.20;942.63;;;;;;;-0.61;100.00;103140.09;5028425;28;20046;-87
2022/02/27 08:51:45;;;;;;;1091.18;998.75;;;;;;;-0.33;100.00;103178.47;5028460;28;20049;-86
2022/02/27 08:54:18;;;;;;;1132.30;999.90;;;;;;;-0.32;100.00;103177.44;5031526;28;20045;-87
2022/02/27 08:56:53;;;;;;;1160.43;999.90;;;;;;;-0.29;100.00;103157.59;5032748;28;20071;-88
2022/02/27 08:59:26;;;;;;;1180.93;999.90;;;;;;;-0.18;100.00;103179.66;5018988;28;20054;-87
2022/02/27 09:01:59;;;;;;;1198.32;999.90;;;;;;;-0.16;100.00;103176.84;5028066;28;20046;-87
2022/02/27 09:04:32;;;;;;;1203.40;999.90;;;;;;;-0.06;100.00;103176.81;5023171;28;20048;-83
2022/02/27 09:07:06;;;;;;;1210.03;999.90;;;;;;;-0.01;100.00;103171.84;5026529;28;20064;-84
2022/02/27 09:09:39;;;;;;;1215.63;999.90;;;;;;;0.00;100.00;103178.91;5028383;28;20053;-84
2022/02/27 09:12:14;;;;;;;1221.70;999.90;;;;;;;0.04;100.00;103177.59;5023024;28;20046;-84
2022/02/27 09:14:42;;;;;;;1224.97;999.90;;;;;;;0.09;100.00;103174.50;5037883;28;20049;-85
2022/02/27 09:17:16;;;;;;;1233.72;999.90;;;;;;;0.25;100.00;103171.16;5023471;28;20057;-84
2022/02/27 09:19:50;;;;;;;1236.93;999.90;;;;;;;0.17;100.00;103171.91;5026599;28;20045;-84
2022/02/27 09:22:23;;;;;;;1242.70;999.90;;;;;;;0.20;100.00;103171.59;5024451;28;20057;-84
2022/02/27 09:24:51;;;;;;;1246.95;999.90;;;;;;;0.33;100.00;103179.28;5023513;28;20045;-84
2022/02/27 09:27:25;;;;;;;1251.90;999.90;;;;;;;0.32;100.00;103177.63;5027816;28;20053;-84
2022/02/27 09:29:59;;;;;;;1256.00;999.90;;;;;;;0.32;100.00;103177.63;5031273;28;20037;-84
2022/02/27 09:32:27;;;;;;;1258.40;999.90;;;;;;;0.48;100.00;103176.94;5037544;28;20053;-86
2022/02/27 09:35:02;;;;;;;1261.22;999.90;;;;;;;0.45;100.00;103179.94;5029165;28;20697;-83
2022/02/27 09:37:36;;;;;;;1266.05;999.90;;;;;;;0.54;100.00;103176.34;5018697;28;20050;-84
2022/02/27 09:40:10;;;;;;;1269.18;999.90;;;;;;;0.61;100.00;103172.06;5024659;28;20640;-84
2022/02/27 09:42:39;;;;;;;1273.78;999.90;;;;;;;0.61;100.00;103171.22;5026975;28;20056;-84
2022/02/27 09:45:14;;;;;;;1278.57;999.90;;;;;;;0.67;100.00;103174.13;5026942;28;20436;-84
2022/02/27 09:47:49;;;;;;;1281.10;999.90;;;;;;;0.74;100.00;103168.16;5013251;28;20046;-84
2022/02/27 09:50:23;;;;;;;1289.05;999.90;;;;;;;0.84;100.00;103167.09;5019765;28;20053;-85
2022/02/27 09:52:56;;;;;;;1292.07;999.90;;;;;;;0.91;100.00;103164.66;5019818;28;20053;-86
2022/02/27 09:55:29;;;;;;;1298.07;999.90;;;;;;;0.99;100.00;103169.22;5022965;28;20582;-84
2022/02/27 09:58:04;;;;;;;1299.90;999.90;;;;;;;1.04;100.00;103163.38;5029342;28;20053;-86
2022/02/27 10:00:33;;;;;;;1305.90;999.90;;;;;;;0.96;100.00;103156.13;5022798;28;20513;-86
2022/02/27 10:03:08;;;;;;;1310.38;999.90;;;;;;;1.11;100.00;103167.16;5023029;28;20057;-86
2022/02/27 10:05:38;;;;;;;1317.35;999.90;;;;;;;1.23;100.00;103165.06;5027415;28;20046;-86
2022/02/27 10:08:12;;;;;;;1314.65;999.90;;;;;;;1.20;100.00;103150.13;5022729;28;20053;-88
2022/02/27 10:10:55;;;;;;;1323.13;999.90;;;;;;;1.33;100.00;103150.56;5024542;28;20131;-84
2022/02/27 10:13:35;;;;;;;1327.75;999.90;;;;;;;1.44;100.00;103162.88;5027107;28;20038;-84
2022/02/27 10:16:11;;;;;;;1331.13;999.90;;;;;;;1.60;100.00;103172.88;5041063;28;20406;-84
2022/02/27 10:18:46;;;;;;;1337.68;999.90;;;;;;;1.49;100.00;103175.81;5031567;28;20057;-83
2022/02/27 10:21:20;;;;;;;1341.78;999.90;;;;;;;1.56;100.00;103171.53;5030542;28;20050;-84
2022/02/27 10:24:01;;;;;;;1347.32;999.90;;;;;;;1.52;100.00;103159.41;5025247;28;20050;-85
2022/02/27 10:26:36;;;;;;;1354.72;999.90;;;;;;;1.61;100.00;103166.50;5024990;28;20042;-84
2022/02/27 10:29:12;;;;;;;1359.75;999.90;;;;;;;1.79;100.00;103157.53;5027014;28;20049;-85
2022/02/27 10:31:47;;;;;;;1362.07;999.90;;;;;;;1.84;100.00;103165.97;5029925;28;20430;-84
2022/02/27 10:34:22;;;;;;;1366.03;999.90;;;;;;;1.94;100.00;103161.31;5025534;28;20054;-85
2022/02/27 10:37:00;;;;;;;1374.60;999.90;;;;;;;1.87;100.00;103155.72;5002800;28;20053;-84
2022/02/27 10:39:35;;;;;;;1378.63;999.90;;;;;;;1.95;100.00;103162.16;5028304;28;20066;-84
2022/02/27 10:42:17;;;;;;;1385.00;999.90;;;;;;;2.11;100.00;103158.69;5031824;28;20386;-83
2022/02/27 10:44:53;;;;;;;;;;;;;;;2.25;100.00;103167.97;5018639;28;20686;-83
2022/02/27 10:47:23;;;;;;;1388.82;999.90;;;;;;;2.28;100.00;103162.25;5020440;28;19944;-84
2022/02/27 10:49:58;;;;;;;1403.50;999.90;;;;;;;2.50;100.00;103161.66;5019282;28;20064;-83
2022/02/27 10:52:32;;;;;;;1422.35;999.90;;;;;;;2.71;100.00;103169.25;5013156;28;20088;-83
2022/02/27 10:55:08;;;;;;;1444.43;999.90;;;;;;;2.77;100.00;103162.38;5017540;28;20057;-83
2022/02/27 10:57:44;;;;;;;1468.00;999.90;;;;;;;2.76;100.00;103157.16;5018247;28;20045;-83
2022/02/27 11:00:20;;;;;;;1487.28;999.90;;;;;;;2.76;100.00;103168.75;5015615;28;20057;-86
2022/02/27 11:02:56;;;;;;;1503.28;999.90;;;;;;;2.78;100.00;103164.06;5017716;28;20061;-82
2022/02/27 11:05:31;;;;;;;1509.20;999.90;;;;;;;2.80;100.00;103170.09;5016009;28;20052;-84
2022/02/27 11:08:08;;;;;;;1520.45;999.90;;;;;;;2.84;100.00;103168.75;5011511;28;20053;-83
2022/02/27 11:10:43;;;;;;;1523.38;999.90;;;;;;;2.83;100.00;103166.25;5011268;28;20054;-83
2022/02/27 11:13:17;;;;;;;1524.38;999.90;;;;;;;2.82;100.00;103169.97;5015233;28;20053;-83
2022/02/27 11:15:52;;;;;;;1511.38;999.90;;;;;;;2.82;100.00;103169.97;5016297;28;20057;-83
2022/02/27 11:18:26;;;;;;;1505.28;999.90;;;;;;;2.85;100.00;103166.94;5015963;28;20049;-82